Time;durP1;ratioP1;P1;durP2;ratioP2;P2;SDS_P1;SDS_P2;PMS_P1;PMS_P2;Temp;Humidity;BMP_temperature;BMP_pressure;BME280_temperature;BME280_humidity;BME280_pressure;Samples;Min_cycle;Max_cycle;Signal;HPM_P1;HPM_P2
2023/06/24 00:00:15;;;;;;;5.70;4.57;;;17.10;99.90;;;;;;5033188;28;20196;-82
2023/06/24 00:02:45;;;;;;;6.60;4.72;;;17.10;99.90;;;;;;5019762;28;20246;-83
2023/06/24 00:05:12;;;;;;;7.20;5.18;;;17.10;99.90;;;;;;5017468;28;20208;-82
2023/06/24 00:07:45;;;;;;;6.50;4.47;;;17.10;99.90;;;;;;5015238;28;20214;-82
2023/06/24 00:10:16;;;;;;;9.10;4.68;;;17.30;99.90;;;;;;5016768;28;20250;-80
2023/06/24 00:12:45;;;;;;;6.28;4.78;;;17.50;99.90;;;;;;5024185;28;20199;-82
2023/06/24 00:15:12;;;;;;;7.18;4.88;;;17.50;99.90;;;;;;5029283;28;20640;-83
2023/06/24 00:17:40;;;;;;;8.50;4.97;;;17.40;99.90;;;;;;5010295;28;20196;-81
2023/06/24 00:20:10;;;;;;;7.15;4.78;;;17.00;99.90;;;;;;5018955;28;20232;-82
2023/06/24 00:22:43;;;;;;;7.55;5.18;;;16.50;99.90;;;;;;5035556;28;20220;-82
2023/06/24 00:25:14;;;;;;;11.38;6.07;;;16.70;99.90;;;;;;5037165;28;20200;-82
2023/06/24 00:27:42;;;;;;;6.97;5.05;;;16.20;99.90;;;;;;5007740;28;20319;-82
2023/06/24 00:30:10;;;;;;;9.70;5.32;;;16.20;99.90;;;;;;4999910;28;20193;-80
2023/06/24 00:32:38;;;;;;;8.88;4.95;;;16.30;99.90;;;;;;5032048;28;20247;-85
2023/06/24 00:35:06;;;;;;;6.32;5.05;;;16.50;99.90;;;;;;5019299;28;20266;-82
2023/06/24 00:37:33;;;;;;;6.53;4.82;;;16.70;99.90;;;;;;5040016;28;20196;-79
2023/06/24 00:40:00;;;;;;;7.13;5.10;;;17.00;99.90;;;;;;5034667;28;20994;-80
2023/06/24 00:42:27;;;;;;;6.85;4.90;;;17.10;99.90;;;;;;5019471;28;20215;-80
2023/06/24 00:44:54;;;;;;;6.75;4.32;;;17.30;99.90;;;;;;5023893;28;20220;-80
2023/06/24 00:47:23;;;;;;;7.22;4.88;;;17.40;99.90;;;;;;5026082;28;20223;-83
2023/06/24 00:49:52;;;;;;;5.47;4.68;;;17.50;99.90;;;;;;5030809;28;20196;-83
2023/06/24 00:52:20;;;;;;;8.75;4.50;;;17.60;99.90;;;;;;5023949;28;20542;-81
2023/06/24 00:54:47;;;;;;;6.88;4.68;;;17.60;99.90;;;;;;5035334;28;20208;-82
2023/06/24 00:57:14;;;;;;;7.05;4.57;;;17.70;99.90;;;;;;5033364;28;20195;-82
2023/06/24 00:59:44;;;;;;;5.68;3.90;;;17.80;99.90;;;;;;5033391;28;20239;-81
2023/06/24 01:02:14;;;;;;;11.43;4.60;;;17.80;99.90;;;;;;5008428;28;20664;-82
2023/06/24 01:04:41;;;;;;;4.95;4.15;;;17.70;99.90;;;;;;5029544;28;20248;-81
2023/06/24 01:07:08;;;;;;;5.07;4.05;;;17.70;99.90;;;;;;5028168;28;20656;-80
2023/06/24 01:09:36;;;;;;;6.88;5.13;;;17.50;99.90;;;;;;5012618;28;20200;-85
2023/06/24 01:12:04;;;;;;;7.55;5.05;;;17.30;99.90;;;;;;5006302;28;20215;-82
2023/06/24 01:14:31;;;;;;;7.13;5.15;;;17.20;99.90;;;;;;5027152;28;20200;-82
2023/06/24 01:17:31;;;;;;;6.75;4.50;;;17.10;99.90;;;;;;5015905;28;20196;-84
2023/06/24 01:20:13;;;;;;;9.93;5.32;;;17.20;99.90;;;;;;5028510;28;20228;-81
2023/06/24 01:23:18;;;;;;;7.13;5.47;;;17.10;99.90;;;;;;5015510;28;20192;-81
2023/06/24 01:26:30;;;;;;;8.95;5.90;;;16.70;99.90;;;;;;5013577;28;20236;-84
2023/06/24 01:29:23;;;;;;;5.85;4.88;;;16.70;99.90;;;;;;5028422;28;20202;-81
2023/06/24 01:32:04;;;;;;;8.13;5.43;;;16.60;99.90;;;;;;5009798;28;20251;-84
2023/06/24 01:34:36;;;;;;;8.38;5.05;;;16.60;99.90;;;;;;5003408;28;20192;-80
2023/06/24 01:37:26;;;;;;;6.20;4.35;;;16.50;99.90;;;;;;5012237;28;20196;-82
2023/06/24 01:40:08;;;;;;;6.90;4.75;;;16.50;99.90;;;;;;5027612;28;20654;-80
2023/06/24 01:42:38;;;;;;;7.30;4.60;;;16.50;99.90;;;;;;5030624;28;20184;-79
2023/06/24 01:45:27;;;;;;;5.80;4.80;;;16.60;99.90;;;;;;5039843;28;20687;-84
2023/06/24 01:48:13;;;;;;;7.03;4.93;;;16.70;99.90;;;;;;5013770;28;20220;-82
2023/06/24 01:50:54;;;;;;;8.57;5.25;;;16.70;99.90;;;;;;5011624;28;20224;-79
2023/06/24 01:53:22;;;;;;;7.18;5.22;;;16.70;99.90;;;;;;5004387;28;20192;-82
2023/06/24 01:55:51;;;;;;;8.40;4.88;;;16.70;99.90;;;;;;5026424;28;20200;-81
2023/06/24 01:58:21;;;;;;;7.45;4.82;;;16.60;99.90;;;;;;5013662;28;20651;-82
2023/06/24 02:00:50;;;;;;;12.98;5.15;;;16.70;99.90;;;;;;5026066;28;20529;-84
2023/06/24 02:03:18;;;;;;;7.32;5.22;;;16.70;99.90;;;;;;5015244;28;20235;-83
2023/06/24 02:05:48;;;;;;;7.38;5.40;;;16.50;99.90;;;;;;5019305;28;20412;-81
2023/06/24 02:08:20;;;;;;;9.38;5.60;;;16.50;99.90;;;;;;5032284;28;20180;-82
2023/06/24 02:10:49;;;;;;;6.88;4.97;;;16.30;99.90;;;;;;5007636;28;20201;-83
2023/06/24 02:13:17;;;;;;;11.53;6.60;;;16.30;99.90;;;;;;5020055;28;20199;-83
2023/06/24 02:15:47;;;;;;;6.30;5.30;;;16.40;99.90;;;;;;5026750;28;20224;-80
2023/06/24 02:18:15;;;;;;;7.27;5.43;;;16.40;99.90;;;;;;5029833;28;20193;-80
2023/06/24 02:20:44;;;;;;;8.13;5.75;;;16.10;99.90;;;;;;5038188;28;20509;-79
2023/06/24 02:23:14;;;;;;;5.50;4.47;;;16.00;99.90;;;;;;5030057;28;20250;-85
2023/06/24 02:25:43;;;;;;;8.55;5.47;;;16.10;99.90;;;;;;5030592;28;20672;-81
2023/06/24 02:28:10;;;;;;;5.75;4.72;;;16.30;99.90;;;;;;5017618;28;20200;-80
2023/06/24 02:30:39;;;;;;;7.13;4.65;;;16.40;99.90;;;;;;5035930;28;20228;-81
2023/06/24 02:33:07;;;;;;;8.75;4.75;;;16.50;99.90;;;;;;5014570;28;20196;-81
2023/06/24 02:35:34;;;;;;;9.95;5.15;;;16.60;99.90;;;;;;5015921;28;20204;-81
2023/06/24 02:38:03;;;;;;;6.88;5.22;;;16.70;99.90;;;;;;5005118;28;20287;-82
2023/06/24 02:40:30;;;;;;;8.60;5.00;;;16.60;99.90;;;;;;5035997;28;20193;-84
2023/06/24 02:42:59;;;;;;;6.82;4.65;;;16.50;99.90;;;;;;5033428;28;20680;-80
2023/06/24 02:45:28;;;;;;;6.53;4.88;;;16.50;99.90;;;;;;5035192;28;20719;-80
2023/06/24 02:47:57;;;;;;;7.93;5.55;;;16.60;99.90;;;;;;5031490;28;20192;-86
2023/06/24 02:50:25;;;;;;;6.72;4.82;;;16.70;99.90;;;;;;5013966;28;20203;-82
2023/06/24 02:52:52;;;;;;;7.35;4.90;;;16.60;99.90;;;;;;5037203;28;20220;-89
2023/06/24 02:55:24;;;;;;;8.70;5.50;;;16.50;99.90;;;;;;5027402;28;20267;-87
2023/06/24 02:57:57;;;;;;;7.15;5.53;;;16.40;99.90;;;;;;5015391;28;20593;-89
2023/06/24 03:00:29;;;;;;;8.13;6.60;;;16.20;99.90;;;;;;5039112;28;20203;-89
2023/06/24 03:03:08;;;;;;;8.23;6.17;;;16.20;99.90;;;;;;5021699;28;20208;-88
2023/06/24 03:05:44;;;;;;;8.07;6.00;;;16.10;99.90;;;;;;5042472;28;20231;-88
2023/06/24 03:08:12;;;;;;;9.67;5.60;;;15.90;99.90;;;;;;5023770;28;20701;-91
2023/06/24 03:10:41;;;;;;;11.50;6.23;;;15.90;99.90;;;;;;5014695;28;20279;-90
2023/06/24 03:13:14;;;;;;;11.70;6.83;;;15.90;99.90;;;;;;5005945;28;20201;-89
2023/06/24 03:15:49;;;;;;;9.77;6.43;;;15.90;99.90;;;;;;5033176;28;20223;-91
2023/06/24 03:18:18;;;;;;;8.20;5.50;;;15.90;99.90;;;;;;5022876;28;20807;-88
2023/06/24 03:20:47;;;;;;;9.30;6.27;;;15.90;99.90;;;;;;5017375;28;20250;-89
2023/06/24 03:23:18;;;;;;;12.73;7.67;;;16.00;99.90;;;;;;5015019;28;20196;-92
2023/06/24 03:25:46;;;;;;;14.87;7.33;;;15.90;99.90;;;;;;5036735;28;20307;-90
2023/06/24 03:28:14;;;;;;;14.20;7.27;;;15.90;99.90;;;;;;5022699;28;20299;-91
2023/06/24 03:30:46;;;;;;;13.00;6.27;;;15.80;99.90;;;;;;5030816;28;20236;-90
2023/06/24 03:33:18;;;;;;;9.40;6.30;;;15.80;99.90;;;;;;5023984;28;20220;-90
2023/06/24 03:35:46;;;;;;;8.45;6.65;;;15.90;99.90;;;;;;5022311;28;20211;-88
2023/06/24 03:38:17;;;;;;;17.03;7.23;;;16.00;99.90;;;;;;5020413;28;20622;-84
2023/06/24 03:40:48;;;;;;;10.07;6.33;;;15.90;99.90;;;;;;5028749;28;20712;-81
2023/06/24 03:43:15;;;;;;;11.10;5.40;;;16.00;99.90;;;;;;5040601;28;20203;-84
2023/06/24 03:45:42;;;;;;;9.82;6.38;;;16.20;99.90;;;;;;5015225;28;20213;-78
2023/06/24 03:48:10;;;;;;;11.40;6.80;;;16.50;99.90;;;;;;5029274;28;20199;-82
2023/06/24 03:50:38;;;;;;;13.82;7.15;;;16.60;99.90;;;;;;5033049;28;20203;-82
2023/06/24 03:53:06;;;;;;;11.43;6.53;;;16.50;99.90;;;;;;5016655;28;20656;-82
2023/06/24 03:55:34;;;;;;;8.50;6.25;;;16.70;99.90;;;;;;4996853;28;20202;-82
2023/06/24 03:58:01;;;;;;;10.45;6.60;;;16.90;99.90;;;;;;5015495;28;20691;-80
2023/06/24 04:00:28;;;;;;;10.35;6.85;;;17.30;99.90;;;;;;5017997;28;20595;-81
2023/06/24 04:03:00;;;;;;;10.52;6.53;;;17.60;99.90;;;;;;5027122;28;20291;-82
2023/06/24 04:05:28;;;;;;;11.27;6.68;;;17.80;99.90;;;;;;5026431;28;20219;-80
2023/06/24 04:07:56;;;;;;;9.23;6.25;;;18.00;99.90;;;;;;5032586;28;20211;-82
2023/06/24 04:10:23;;;;;;;8.70;6.25;;;18.20;99.90;;;;;;5012683;28;20197;-79
2023/06/24 04:12:51;;;;;;;8.35;6.18;;;18.30;99.90;;;;;;5006832;28;20707;-81
2023/06/24 04:15:18;;;;;;;12.35;6.53;;;18.50;99.90;;;;;;5035421;28;20204;-81
2023/06/24 04:17:48;;;;;;;9.73;5.65;;;18.70;99.90;;;;;;5030993;28;20196;-80
2023/06/24 04:20:18;;;;;;;9.52;6.35;;;18.90;99.90;;;;;;5031909;28;20211;-80
2023/06/24 04:22:45;;;;;;;8.35;6.60;;;19.20;99.90;;;;;;5026170;28;20735;-77
2023/06/24 04:25:12;;;;;;;13.13;6.25;;;19.50;99.90;;;;;;5035850;28;20470;-79
2023/06/24 04:27:39;;;;;;;12.52;6.72;;;19.70;99.90;;;;;;5032567;28;20279;-80
2023/06/24 04:30:08;;;;;;;9.55;5.90;;;20.20;99.90;;;;;;5029835;28;20836;-80
2023/06/24 04:32:35;;;;;;;8.43;6.00;;;20.30;99.90;;;;;;5023963;28;20216;-81
2023/06/24 04:35:04;;;;;;;10.00;6.38;;;20.40;99.90;;;;;;5023675;28;20660;-79
2023/06/24 04:37:32;;;;;;;12.80;5.75;;;20.20;99.90;;;;;;5010878;28;20220;-78
2023/06/24 04:40:00;;;;;;;9.98;6.30;;;20.10;99.90;;;;;;5031896;28;20288;-82
2023/06/24 04:42:27;;;;;;;8.40;5.32;;;20.20;99.90;;;;;;5010928;28;20196;-80
2023/06/24 04:44:54;;;;;;;11.27;6.97;;;20.30;99.90;;;;;;5031041;28;20283;-79
2023/06/24 04:47:21;;;;;;;9.23;6.28;;;20.50;99.90;;;;;;5033324;28;20248;-79
2023/06/24 04:49:48;;;;;;;10.77;6.15;;;20.90;99.90;;;;;;5023562;28;20207;-78
2023/06/24 04:52:15;;;;;;;12.48;5.93;;;21.30;99.90;;;;;;5017633;28;20209;-81
2023/06/24 04:54:42;;;;;;;10.27;6.22;;;21.50;99.90;;;;;;5018152;28;20192;-80
2023/06/24 04:57:26;;;;;;;8.48;5.43;;;21.70;99.90;;;;;;5029858;28;20219;-80
2023/06/24 04:59:53;;;;;;;9.02;5.93;;;21.80;99.90;;;;;;5003146;28;20220;-81
2023/06/24 05:02:20;;;;;;;10.40;5.88;;;21.50;99.90;;;;;;5034164;28;20196;-82
2023/06/24 05:04:52;;;;;;;9.50;6.28;;;20.50;99.90;;;;;;5026218;28;20217;-83
2023/06/24 05:07:19;;;;;;;11.00;7.28;;;19.80;99.90;;;;;;5014986;28;20215;-80
2023/06/24 05:09:48;;;;;;;10.55;7.15;;;19.80;99.90;;;;;;5032322;28;20283;-82
2023/06/24 05:12:15;;;;;;;13.40;7.35;;;19.70;99.90;;;;;;5027918;28;20661;-80
2023/06/24 05:14:42;;;;;;;9.75;6.22;;;19.60;99.90;;;;;;5031650;28;20196;-81
2023/06/24 05:17:09;;;;;;;12.10;6.55;;;19.50;99.90;;;;;;5032648;28;20208;-81
2023/06/24 05:19:37;;;;;;;9.98;6.82;;;19.50;99.90;;;;;;5030262;28;20194;-82
2023/06/24 05:22:04;;;;;;;8.43;6.45;;;19.40;99.90;;;;;;5022614;28;20184;-82
2023/06/24 05:24:31;;;;;;;11.55;5.82;;;19.20;99.90;;;;;;5029827;28;20686;-81
2023/06/24 05:27:04;;;;;;;7.40;5.90;;;19.30;99.90;;;;;;5018983;28;20216;-80
2023/06/24 05:29:32;;;;;;;10.98;5.93;;;20.00;99.90;;;;;;5022733;28;20189;-82
2023/06/24 05:32:01;;;;;;;7.78;6.20;;;20.70;99.90;;;;;;5022718;28;20259;-80
2023/06/24 05:34:28;;;;;;;8.00;5.88;;;21.20;99.90;;;;;;5027851;28;20672;-82
2023/06/24 05:36:55;;;;;;;8.65;5.28;;;20.80;99.90;;;;;;5031990;28;20200;-83
2023/06/24 05:39:23;;;;;;;8.18;5.15;;;21.90;99.90;;;;;;5035899;28;20192;-83
2023/06/24 05:41:51;;;;;;;7.22;5.30;;;22.50;99.90;;;;;;5037466;28;20224;-81
2023/06/24 05:44:20;;;;;;;10.05;5.47;;;21.70;99.90;;;;;;5028964;28;20736;-83
2023/06/24 05:46:47;;;;;;;12.40;5.68;;;21.70;99.90;;;;;;5020219;28;20212;-85
2023/06/24 05:49:14;;;;;;;8.38;5.47;;;21.20;99.90;;;;;;5024782;28;20238;-83
2023/06/24 05:51:41;;;;;;;13.48;5.82;;;22.30;99.90;;;;;;5015639;28;20670;-82
2023/06/24 05:54:09;;;;;;;8.65;5.50;;;22.00;99.90;;;;;;5033141;28;20966;-82
2023/06/24 05:56:37;;;;;;;11.23;5.50;;;22.20;99.90;;;;;;5011691;28;20229;-83
2023/06/24 05:59:06;;;;;;;8.07;5.43;;;22.00;99.90;;;;;;5017085;28;20204;-83
2023/06/24 06:01:33;;;;;;;7.82;4.80;;;22.70;99.90;;;;;;5002560;28;20192;-82
2023/06/24 06:04:00;;;;;;;7.00;4.95;;;24.80;99.90;;;;;;5026498;28;20398;-84
2023/06/24 06:06:27;;;;;;;6.47;5.05;;;24.20;99.90;;;;;;5010691;28;20234;-84
2023/06/24 06:08:57;;;;;;;9.02;4.78;;;24.60;99.90;;;;;;5033973;28;20204;-83
2023/06/24 06:11:24;;;;;;;7.10;5.05;;;23.70;99.90;;;;;;5032883;28;20192;-84
2023/06/24 06:13:52;;;;;;;8.18;5.15;;;24.10;99.90;;;;;;5022882;28;20203;-80
2023/06/24 06:16:19;;;;;;;6.50;4.85;;;26.30;99.90;;;;;;5014946;28;20193;-80
2023/06/24 06:18:46;;;;;;;9.45;5.20;;;26.70;99.90;;;;;;5036896;28;20566;-77
2023/06/24 06:21:15;;;;;;;12.82;5.68;;;26.40;99.90;;;;;;5031969;28;20292;-78
2023/06/24 06:23:43;;;;;;;5.70;4.65;;;27.50;99.90;;;;;;5023394;28;20212;-78
2023/06/24 06:26:11;;;;;;;6.05;4.47;;;26.40;99.90;;;;;;5017304;28;20227;-77
2023/06/24 06:28:38;;;;;;;7.40;4.88;;;28.30;99.90;;;;;;5034232;28;20214;-76
2023/06/24 06:31:05;;;;;;;8.57;4.78;;;27.20;99.90;;;;;;5031490;28;20784;-76
2023/06/24 06:33:35;;;;;;;6.63;4.85;;;29.10;99.90;;;;;;5032731;28;20188;-77
2023/06/24 06:36:02;;;;;;;5.68;4.45;;;27.80;99.90;;;;;;4996021;28;20197;-77
2023/06/24 06:38:30;;;;;;;9.15;4.97;;;29.00;99.90;;;;;;5026017;28;20686;-75
2023/06/24 06:40:57;;;;;;;6.28;4.65;;;27.90;99.90;;;;;;5023991;28;20236;-76
2023/06/24 06:43:27;;;;;;;6.03;4.15;;;29.10;99.90;;;;;;5038559;28;20316;-77
2023/06/24 06:45:55;;;;;;;5.47;4.18;;;28.70;99.90;;;;;;5032462;28;20210;-75
2023/06/24 06:48:23;;;;;;;6.32;4.15;;;30.40;99.90;;;;;;5011432;28;20703;-76
2023/06/24 06:50:53;;;;;;;6.35;4.88;;;31.50;99.90;;;;;;5031776;28;20196;-78
2023/06/24 06:53:22;;;;;;;7.93;5.28;;;30.70;99.90;;;;;;5016691;28;20635;-76
2023/06/24 06:55:49;;;;;;;5.57;4.65;;;28.80;99.90;;;;;;5026985;28;20507;-76
2023/06/24 06:58:16;;;;;;;6.80;5.10;;;28.10;99.90;;;;;;5028265;28;20680;-77
2023/06/24 07:00:46;;;;;;;5.95;4.22;;;30.10;99.90;;;;;;5012409;28;20204;-76
2023/06/24 07:03:17;;;;;;;9.02;4.38;;;32.90;99.90;;;;;;5023946;28;20210;-77
2023/06/24 07:05:46;;;;;;;4.88;4.15;;;33.00;99.90;;;;;;5024439;28;20201;-76
2023/06/24 07:08:15;;;;;;;5.03;3.95;;;34.30;99.90;;;;;;5041113;28;20223;-76
2023/06/24 07:10:42;;;;;;;4.57;4.10;;;33.80;99.90;;;;;;5031490;28;20197;-77
2023/06/24 07:13:09;;;;;;;5.25;3.75;;;33.60;99.90;;;;;;5025931;28;20195;-77
2023/06/24 07:15:36;;;;;;;6.80;4.10;;;35.80;98.80;;;;;;5022754;28;20199;-77
2023/06/24 07:18:04;;;;;;;5.90;4.30;;;34.60;97.20;;;;;;5020548;28;20223;-77
2023/06/24 07:20:31;;;;;;;4.18;3.78;;;33.70;97.70;;;;;;5021704;28;20634;-77
2023/06/24 07:22:58;;;;;;;6.50;3.83;;;34.10;95.70;;;;;;5029418;28;20519;-77
2023/06/24 07:25:26;;;;;;;3.88;3.53;;;33.10;95.10;;;;;;5023619;28;20234;-77
2023/06/24 07:27:53;;;;;;;6.35;3.53;;;35.20;96.80;;;;;;5029156;28;20210;-77
2023/06/24 07:30:20;;;;;;;7.15;3.70;;;37.30;95.30;;;;;;5021946;28;20192;-77
2023/06/24 07:32:47;;;;;;;5.43;3.55;;;35.60;90.40;;;;;;5033682;28;20188;-76
2023/06/24 07:35:16;;;;;;;6.82;3.65;;;34.20;92.80;;;;;;5015978;28;20201;-77
2023/06/24 07:37:43;;;;;;;5.28;3.63;;;36.60;92.70;;;;;;5006955;28;20206;-77
2023/06/24 07:40:11;;;;;;;5.45;3.58;;;36.50;90.60;;;;;;5024695;28;20227;-76
2023/06/24 07:42:38;;;;;;;6.13;3.55;;;35.10;81.80;;;;;;5025478;28;20196;-77
2023/06/24 07:45:06;;;;;;;8.10;4.50;;;33.50;85.10;;;;;;5029548;28;20195;-77
2023/06/24 07:47:33;;;;;;;4.30;3.63;;;33.30;91.20;;;;;;5031627;28;20253;-77
2023/06/24 07:50:02;;;;;;;6.07;3.60;;;36.40;91.10;;;;;;5023431;28;20201;-78
2023/06/24 07:52:29;;;;;;;3.80;3.13;;;39.30;87.70;;;;;;5027163;28;20698;-79
2023/06/24 07:54:56;;;;;;;5.43;3.53;;;36.50;81.20;;;;;;5016883;28;20206;-77
2023/06/24 07:57:23;;;;;;;4.05;3.17;;;36.30;80.80;;;;;;5020897;28;20385;-79
2023/06/24 07:59:54;;;;;;;4.25;3.20;;;37.90;83.40;;;;;;5038948;28;20709;-78
2023/06/24 08:02:21;;;;;;;3.75;3.25;;;39.20;80.90;;;;;;5005215;28;20266;-77
2023/06/24 08:04:52;;;;;;;4.10;3.28;;;39.20;74.10;;;;;;5016378;28;20257;-78
2023/06/24 08:07:19;;;;;;;5.13;3.15;;;38.20;76.80;;;;;;5014385;28;20212;-80
2023/06/24 08:09:47;;;;;;;4.80;3.50;;;38.20;74.50;;;;;;5031191;28;20250;-80
2023/06/24 08:12:14;;;;;;;5.18;3.92;;;36.50;64.80;;;;;;5022941;28;20193;-77
2023/06/24 08:14:43;;;;;;;7.95;3.78;;;33.90;64.60;;;;;;5028560;28;20288;-79
2023/06/24 08:17:10;;;;;;;4.57;3.20;;;35.20;75.40;;;;;;5016120;28;20210;-81
2023/06/24 08:19:38;;;;;;;3.95;3.53;;;38.40;73.80;;;;;;5023825;28;20571;-79
2023/06/24 08:22:05;;;;;;;4.78;3.45;;;37.90;59.70;;;;;;5018126;28;20253;-80
2023/06/24 08:24:32;;;;;;;5.85;3.67;;;35.70;62.00;;;;;;5031768;28;20192;-79
2023/06/24 08:26:59;;;;;;;4.40;3.25;;;35.30;65.60;;;;;;5030025;28;20211;-79
2023/06/24 08:29:26;;;;;;;7.05;3.55;;;36.70;67.50;;;;;;5014914;28;20222;-80
2023/06/24 08:31:53;;;;;;;6.82;3.42;;;36.60;63.30;;;;;;5027696;28;20721;-80
2023/06/24 08:34:33;;;;;;;5.15;4.10;;;35.40;65.30;;;;;;5015159;28;20671;-80
2023/06/24 08:37:01;;;;;;;6.82;4.30;;;35.30;62.80;;;;;;5011013;28;20222;-80
2023/06/24 08:39:29;;;;;;;4.80;4.07;;;35.30;62.30;;;;;;5030801;28;20193;-77
2023/06/24 08:41:56;;;;;;;7.15;3.97;;;33.50;58.50;;;;;;5036767;28;20196;-79
2023/06/24 08:44:23;;;;;;;6.03;3.75;;;34.80;58.70;;;;;;5033179;28;20532;-79
2023/06/24 08:46:51;;;;;;;5.55;4.50;;;35.70;65.80;;;;;;5021694;28;20224;-79
2023/06/24 08:49:22;;;;;;;5.40;4.20;;;39.70;65.80;;;;;;5033054;28;20188;-78
2023/06/24 08:51:58;;;;;;;7.10;3.90;;;40.20;59.70;;;;;;5030042;28;20226;-78
2023/06/24 08:54:26;;;;;;;6.72;4.20;;;40.00;49.40;;;;;;5026890;28;20588;-78
2023/06/24 08:56:53;;;;;;;7.32;4.20;;;36.70;51.30;;;;;;5022844;28;20203;-79
2023/06/24 08:59:20;;;;;;;4.65;4.25;;;36.50;50.30;;;;;;5024204;28;20412;-79
2023/06/24 09:01:49;;;;;;;5.90;4.13;;;36.90;56.70;;;;;;5030529;28;20197;-81
2023/06/24 09:04:17;;;;;;;4.28;3.47;;;38.00;55.00;;;;;;5030582;28;20223;-78
2023/06/24 09:06:44;;;;;;;4.72;3.72;;;39.40;50.50;;;;;;5027537;28;20219;-77
2023/06/24 09:09:22;;;;;;;10.40;4.20;;;39.40;53.50;;;;;;5015433;28;20676;-79
2023/06/24 09:11:59;;;;;;;5.15;3.75;;;41.00;52.00;;;;;;5011258;28;20211;-78
2023/06/24 09:14:29;;;;;;;5.20;4.38;;;41.60;51.40;;;;;;5027246;28;20214;-81
2023/06/24 09:16:58;;;;;;;5.43;3.88;;;40.80;45.30;;;;;;5025634;28;20200;-80
2023/06/24 09:19:29;;;;;;;4.05;3.65;;;40.90;48.80;;;;;;5008414;28;20211;-78
2023/06/24 09:22:02;;;;;;;4.38;3.20;;;42.70;47.70;;;;;;5028829;28;20200;-81
2023/06/24 09:24:31;;;;;;;7.43;4.13;;;42.20;44.60;;;;;;5017771;28;20233;-79
2023/06/24 09:26:58;;;;;;;4.97;3.53;;;38.70;56.10;;;;;;5022139;28;20293;-80
2023/06/24 09:29:29;;;;;;;7.20;4.10;;;38.90;40.80;;;;;;5030178;28;20200;-79
2023/06/24 09:31:59;;;;;;;5.05;3.78;;;37.60;36.90;;;;;;5014818;28;20235;-79
2023/06/24 09:34:28;;;;;;;6.65;4.22;;;35.60;37.20;;;;;;5027772;28;20208;-79
2023/06/24 09:36:56;;;;;;;5.72;4.18;;;35.50;40.80;;;;;;5023535;28;20836;-80
2023/06/24 09:39:30;;;;;;;4.28;3.58;;;34.50;39.00;;;;;;5025633;28;20184;-79
2023/06/24 09:42:00;;;;;;;4.20;3.47;;;35.20;43.50;;;;;;5033490;28;20184;-81
2023/06/24 09:44:28;;;;;;;4.75;4.22;;;33.80;39.50;;;;;;5019355;28;20206;-80
2023/06/24 09:46:56;;;;;;;7.18;5.15;;;33.10;39.40;;;;;;5015153;28;20310;-80
2023/06/24 09:49:23;;;;;;;10.88;4.28;;;34.10;41.40;;;;;;5030197;28;20191;-83
2023/06/24 09:51:55;;;;;;;6.75;4.70;;;34.20;40.20;;;;;;5006951;28;20288;-81
2023/06/24 09:54:23;;;;;;;5.00;3.70;;;34.50;40.40;;;;;;5025699;28;20196;-81
2023/06/24 09:56:53;;;;;;;4.75;3.85;;;37.10;43.30;;;;;;5028790;28;20228;-81
2023/06/24 09:59:21;;;;;;;5.85;4.25;;;36.50;36.80;;;;;;5026837;28;20230;-81
2023/06/24 10:01:51;;;;;;;8.32;4.80;;;32.90;39.20;;;;;;5039266;28;20195;-83
2023/06/24 10:04:21;;;;;;;7.82;4.57;;;33.10;40.80;;;;;;5026841;28;20291;-83
2023/06/24 10:06:49;;;;;;;7.53;4.38;;;34.30;62.30;;;;;;5034847;28;20196;-80
2023/06/24 10:09:17;;;;;;;6.70;4.15;;;34.30;39.40;;;;;;5015061;28;20314;-79
2023/06/24 10:11:46;;;;;;;5.68;4.43;;;34.80;43.40;;;;;;5014316;28;20715;-82
2023/06/24 10:14:15;;;;;;;5.97;4.10;;;34.10;41.90;;;;;;5019093;28;20648;-81
2023/06/24 10:16:43;;;;;;;4.93;3.83;;;34.30;39.90;;;;;;5023124;28;20670;-80
2023/06/24 10:19:10;;;;;;;6.15;4.45;;;32.50;45.50;;;;;;5038479;28;20747;-81
2023/06/24 10:21:52;;;;;;;5.85;5.22;;;34.60;45.90;;;;;;5031193;28;20597;-80
2023/06/24 10:24:32;;;;;;;6.50;4.88;;;34.70;43.40;;;;;;5006731;28;20656;-80
2023/06/24 10:27:03;;;;;;;8.57;4.13;;;35.20;43.40;;;;;;5021201;28;20203;-79
2023/06/24 10:29:35;;;;;;;6.55;4.32;;;35.90;40.90;;;;;;5024958;28;20193;-80
2023/06/24 10:32:07;;;;;;;9.27;5.20;;;37.40;40.80;;;;;;5024019;28;20236;-77
2023/06/24 10:34:37;;;;;;;5.85;4.03;;;37.50;33.40;;;;;;5028681;28;20287;-80
2023/06/24 10:37:07;;;;;;;6.97;4.60;;;36.70;36.80;;;;;;5006012;28;20677;-81
2023/06/24 10:39:44;;;;;;;4.57;3.90;;;37.00;33.20;;;;;;5029355;28;20195;-76
2023/06/24 10:42:27;;;;;;;4.32;3.65;;;37.90;36.90;;;;;;5011317;28;20222;-77
2023/06/24 10:44:56;;;;;;;6.38;3.97;;;38.30;38.50;;;;;;5017807;28;20724;-76
2023/06/24 10:47:25;;;;;;;6.10;3.83;;;39.30;36.20;;;;;;5004047;28;20219;-74
2023/06/24 10:49:52;;;;;;;4.55;3.78;;;38.60;34.00;;;;;;5016485;28;20200;-78
2023/06/24 10:52:21;;;;;;;4.82;4.03;;;36.30;34.60;;;;;;5022037;28;20192;-80
2023/06/24 10:54:49;;;;;;;5.85;4.43;;;34.90;30.00;;;;;;5017964;28;20612;-79
2023/06/24 10:57:24;;;;;;;6.03;4.22;;;32.60;33.40;;;;;;5029929;28;20207;-80
2023/06/24 10:59:53;;;;;;;5.25;3.53;;;33.40;39.60;;;;;;5030470;28;20199;-80
2023/06/24 11:02:26;;;;;;;4.43;3.47;;;33.00;37.00;;;;;;5013464;28;20644;-80
2023/06/24 11:05:04;;;;;;;6.18;3.83;;;32.50;39.10;;;;;;5021847;28;20579;-81
2023/06/24 11:07:34;;;;;;;5.90;4.10;;;32.50;41.00;;;;;;5005897;28;20299;-79
2023/06/24 11:10:06;;;;;;;3.90;3.50;;;33.20;43.30;;;;;;5032335;28;20207;-79
2023/06/24 11:12:38;;;;;;;7.13;3.97;;;35.70;39.70;;;;;;5024064;28;20676;-79
2023/06/24 11:15:08;;;;;;;5.60;3.38;;;37.00;38.20;;;;;;5030898;28;20687;-78
2023/06/24 11:17:38;;;;;;;7.75;3.60;;;37.40;34.50;;;;;;5025019;28;20247;-79
2023/06/24 11:20:13;;;;;;;5.95;4.00;;;35.40;33.00;;;;;;5015209;28;20425;-80
2023/06/24 11:22:45;;;;;;;4.85;3.72;;;35.80;32.20;;;;;;5014950;28;20671;-80
2023/06/24 11:25:21;;;;;;;5.63;3.85;;;33.70;31.40;;;;;;5029884;28;20188;-80
2023/06/24 11:27:53;;;;;;;4.68;3.22;;;34.30;35.30;;;;;;5036588;28;20550;-81
2023/06/24 11:30:21;;;;;;;4.75;3.38;;;36.20;35.10;;;;;;5014714;28;20648;-81
2023/06/24 11:32:50;;;;;;;3.80;3.13;;;36.30;32.80;;;;;;5029701;28;20196;-80
2023/06/24 11:35:17;;;;;;;4.18;2.95;;;35.90;32.40;;;;;;5033766;28;20202;-82
2023/06/24 11:37:47;;;;;;;3.40;3.10;;;34.80;34.90;;;;;;5030825;28;20228;-80
2023/06/24 11:40:21;;;;;;;5.38;3.35;;;34.40;35.70;;;;;;5037324;28;20726;-82
2023/06/24 11:42:51;;;;;;;4.43;3.70;;;34.80;35.50;;;;;;5032258;28;20702;-80
2023/06/24 11:45:22;;;;;;;7.38;3.35;;;34.60;34.30;;;;;;5014118;28;20242;-80
2023/06/24 11:47:49;;;;;;;6.32;3.53;;;33.90;31.80;;;;;;5024386;28;20224;-81
2023/06/24 11:50:16;;;;;;;3.63;2.75;;;34.90;35.00;;;;;;5006726;28;20251;-80
2023/06/24 11:52:52;;;;;;;5.85;3.15;;;37.00;33.50;;;;;;5031165;28;20655;-82
2023/06/24 11:55:26;;;;;;;5.72;2.83;;;38.50;33.20;;;;;;5018640;28;20200;-82
2023/06/24 11:58:09;;;;;;;3.72;3.10;;;38.50;30.40;;;;;;5038749;28;20195;-80
2023/06/24 12:00:44;;;;;;;3.15;2.80;;;38.30;30.60;;;;;;5027902;28;20227;-79
2023/06/24 12:03:12;;;;;;;3.42;2.80;;;36.70;28.10;;;;;;4998918;28;20196;-81
2023/06/24 12:05:44;;;;;;;3.40;2.78;;;34.30;26.10;;;;;;5034272;28;20724;-82
2023/06/24 12:08:15;;;;;;;5.70;2.63;;;33.70;30.00;;;;;;5019296;28;20221;-80
2023/06/24 12:10:44;;;;;;;3.60;2.90;;;35.40;30.00;;;;;;5013929;28;20185;-81
2023/06/24 12:13:12;;;;;;;3.70;2.85;;;36.50;29.80;;;;;;5032761;28;20193;-80
2023/06/24 12:15:40;;;;;;;4.93;3.05;;;37.30;29.70;;;;;;5016492;28;20188;-79
2023/06/24 12:18:14;;;;;;;3.65;2.97;;;36.90;28.60;;;;;;5011450;28;20309;-80
2023/06/24 12:20:44;;;;;;;4.53;2.92;;;36.50;29.10;;;;;;5030450;28;20337;-80
2023/06/24 12:23:11;;;;;;;5.03;2.58;;;36.70;27.90;;;;;;5029874;28;20192;-81
2023/06/24 12:25:39;;;;;;;3.22;2.50;;;36.70;27.30;;;;;;5037771;28;20265;-79
2023/06/24 12:28:07;;;;;;;3.22;2.50;;;36.40;27.60;;;;;;5029951;28;20243;-80
2023/06/24 12:30:36;;;;;;;3.08;2.50;;;36.10;26.70;;;;;;5013650;28;20217;-80
2023/06/24 12:33:03;;;;;;;4.43;2.80;;;35.70;25.50;;;;;;5016690;28;20200;-85
2023/06/24 12:35:32;;;;;;;3.22;2.33;;;34.60;27.10;;;;;;5023808;28;20586;-83
2023/06/24 12:37:59;;;;;;;4.22;2.78;;;34.30;26.30;;;;;;5059597;28;20200;-86
2023/06/24 12:40:28;;;;;;;2.78;2.47;;;34.60;26.90;;;;;;5042849;28;20565;-87
2023/06/24 12:42:59;;;;;;;4.72;3.25;;;34.50;28.10;;;;;;5022820;28;20188;-86
2023/06/24 12:45:26;;;;;;;3.97;2.60;;;34.10;27.30;;;;;;5017544;28;20258;-86
2023/06/24 12:47:53;;;;;;;4.78;3.10;;;33.60;25.20;;;;;;5039118;28;20616;-85
2023/06/24 12:50:20;;;;;;;3.47;2.75;;;32.70;25.60;;;;;;5033114;28;20204;-87
2023/06/24 12:52:48;;;;;;;3.00;2.53;;;31.80;27.00;;;;;;5032537;28;20291;-87
2023/06/24 12:55:15;;;;;;;3.13;2.47;;;31.60;26.40;;;;;;5018348;28;20204;-86
2023/06/24 12:57:43;;;;;;;4.32;2.63;;;31.70;28.90;;;;;;5013473;28;20682;-87